• Join FlightAware (Why Join?)
  • Login
  • US Flag 
12:23PM EDT


 

Airport Tracker/Info


-or-


 

Live Flight TrackerFlight Track Log ✈ N885WT ✈ 18-Jul-2013 ✈ RKSI / ICN - KCRQ

Flight Track Log - Related Links

Times and Time Zones

All times are in EDT time to prevent confusion due to time zone crossing. See the N885WT flight status page for this flight to view local times or setup timezone preferences in your user account.

Time Position Orientation Groundspeed Altitude Reporting Facility
EDT Latitude Longitude Course Direction KTS MPH feet Rate Location/Type
05:26PM 47.6333 175.2500 82° East 476 548 45,000  Level Oakland Oceanic (ODAPS)
05:32PM 47.7392 176.3836 83° East 476 548 45,000  Level FlightAware Transoceanic
05:33PM 47.7557 176.5730 83° East 476 548 45,000  Level FlightAware Transoceanic
05:34PM 47.7720 176.7625 83° East 476 548 45,000  Level FlightAware Transoceanic
05:35PM 47.7879 176.9521 83° East 476 548 45,000  Level FlightAware Transoceanic
05:36PM 47.8035 177.1418 83° East 476 548 45,000  Level FlightAware Transoceanic
05:37PM 47.8188 177.3316 83° East 476 548 45,000  Level FlightAware Transoceanic
05:38PM 47.8338 177.5216 83° East 476 548 45,000  Level FlightAware Transoceanic
05:39PM 47.8485 177.7117 84° East 476 548 45,000  Level FlightAware Transoceanic
05:40PM 47.8628 177.9018 84° East 476 548 45,000  Level FlightAware Transoceanic
05:41PM 47.8769 178.0921 84° East 476 548 45,000  Level FlightAware Transoceanic
05:42PM 47.8906 178.2825 84° East 476 548 45,000  Level FlightAware Transoceanic
05:43PM 47.9040 178.4729 84° East 476 548 45,000  Level FlightAware Transoceanic
05:44PM 47.9171 178.6635 84° East 476 548 45,000  Level FlightAware Transoceanic
05:45PM 47.9299 178.8542 84° East 476 548 45,000  Level FlightAware Transoceanic
05:46PM 47.9424 179.0449 84° East 476 548 45,000  Level FlightAware Transoceanic
05:47PM 47.9545 179.2357 85° East 476 548 45,000  Level FlightAware Transoceanic
05:48PM 47.9664 179.4267 85° East 476 548 45,000  Level FlightAware Transoceanic
05:49PM 47.9779 179.6177 85° East 476 548 45,000  Level FlightAware Transoceanic
05:50PM 47.9891 179.8088 85° East 476 548 45,000  Level FlightAware Transoceanic
05:50PM 48.0000 180.0000 78° East 481 554 45,000  Level Oakland Oceanic (ODAPS)
05:51PM 48.0000 -180.0000 78° East 476 548 45,000  Level FlightAware Transoceanic
05:52PM 48.0278 -179.8082 78° East 476 548 45,000  Level FlightAware Transoceanic
05:53PM 48.0553 -179.6162 78° East 476 548 45,000  Level FlightAware Transoceanic
05:53PM 48.0667 -179.5167 78° East 485 558 45,000  Level Oakland Oceanic (ODAPS)
05:54PM 48.0825 -179.4239 78° East 476 548 45,000  Level FlightAware Transoceanic
05:55PM 48.1094 -179.2315 78° East 476 548 45,000  Level FlightAware Transoceanic
05:56PM 48.1360 -179.0389 78° East 476 548 45,000  Level FlightAware Transoceanic
05:57PM 48.1653 -178.8229 79° East 481 554 45,000  Level FlightAware Transoceanic
05:58PM 48.1917 -178.6260 79° East 481 554 45,000  Level FlightAware Transoceanic
05:59PM 48.2291 -178.3232 79° East 485 558 45,000  Level FlightAware Transoceanic
06:00PM 48.2550 -178.1235 79° East 485 558 45,000  Level FlightAware Transoceanic
06:01PM 48.2805 -177.9237 79° East 485 558 45,000  Level FlightAware Transoceanic
06:02PM 48.3057 -177.7237 79° East 485 558 45,000  Level FlightAware Transoceanic
06:03PM 48.3305 -177.5234 80° East 485 558 45,000  Level FlightAware Transoceanic
06:04PM 48.3550 -177.3230 80° East 485 558 45,000  Level FlightAware Transoceanic
06:05PM 48.3792 -177.1224 80° East 485 558 45,000  Level FlightAware Transoceanic
06:06PM 48.4029 -176.9216 80° East 485 558 45,000  Level FlightAware Transoceanic
06:07PM 48.4264 -176.7206 80° East 485 558 45,000  Level FlightAware Transoceanic
06:08PM 48.4495 -176.5194 80° East 485 558 45,000  Level FlightAware Transoceanic
06:09PM 48.4722 -176.3180 80° East 485 558 45,000  Level FlightAware Transoceanic
06:10PM 48.4946 -176.1165 81° East 485 558 45,000  Level FlightAware Transoceanic
06:11PM 48.5166 -175.9148 81° East 485 558 45,000  Level FlightAware Transoceanic
06:12PM 48.5383 -175.7129 81° East 485 558 45,000  Level FlightAware Transoceanic
06:13PM 48.5596 -175.5108 81° East 485 558 45,000  Level FlightAware Transoceanic
06:14PM 48.5806 -175.3086 81° East 485 558 45,000  Level FlightAware Transoceanic
06:15PM 48.6012 -175.1062 81° East 485 558 45,000  Level FlightAware Transoceanic
06:16PM 48.6215 -174.9036 81° East 485 558 45,000  Level FlightAware Transoceanic
06:17PM 48.6414 -174.7009 82° East 485 558 45,000  Level FlightAware Transoceanic
06:18PM 48.6609 -174.4980 82° East 485 558 45,000  Level FlightAware Transoceanic
06:19PM 48.6801 -174.2950 82° East 485 558 45,000  Level FlightAware Transoceanic
06:20PM 48.6990 -174.0918 82° East 485 558 45,000  Level FlightAware Transoceanic
06:20PM 48.6833 -174.2167 82° East 479 551 45,000  Level Oakland Oceanic (ODAPS)
06:21PM 48.7174 -173.8885 82° East 485 558 45,000  Level FlightAware Transoceanic
06:22PM 48.7355 -173.6850 82° East 485 558 45,000  Level FlightAware Transoceanic
06:23PM 48.7533 -173.4813 83° East 485 558 45,000  Level FlightAware Transoceanic
06:24PM 48.7707 -173.2776 83° East 485 558 45,000  Level FlightAware Transoceanic
06:25PM 48.7878 -173.0736 83° East 485 558 45,000  Level FlightAware Transoceanic
06:26PM 48.7895 -173.0175 83° East 479 551 45,000  Level FlightAware Transoceanic
06:27PM 48.8060 -172.8172 83° East 479 551 45,000  Level FlightAware Transoceanic
06:28PM 48.8221 -172.6167 83° East 479 551 45,000  Level FlightAware Transoceanic
06:29PM 48.8379 -172.4161 83° East 479 551 45,000  Level FlightAware Transoceanic
06:30PM 48.8533 -172.2154 83° East 479 551 45,000  Level FlightAware Transoceanic
06:31PM 48.8684 -172.0146 84° East 479 551 45,000  Level FlightAware Transoceanic
06:32PM 48.8831 -171.8136 84° East 479 551 45,000  Level FlightAware Transoceanic
06:33PM 48.8975 -171.6125 84° East 479 551 45,000  Level FlightAware Transoceanic
06:34PM 48.9115 -171.4113 84° East 479 551 45,000  Level FlightAware Transoceanic
06:35PM 48.9252 -171.2100 84° East 479 551 45,000  Level FlightAware Transoceanic
06:36PM 48.9386 -171.0086 84° East 479 551 45,000  Level FlightAware Transoceanic
06:37PM 48.9516 -170.8071 84° East 479 551 45,000  Level FlightAware Transoceanic
06:38PM 48.9642 -170.6055 85° East 479 551 45,000  Level FlightAware Transoceanic
06:39PM 48.9765 -170.4037 85° East 479 551 45,000  Level FlightAware Transoceanic
06:40PM 48.9884 -170.2019 85° East 479 551 45,000  Level FlightAware Transoceanic
06:41PM 49.0000 -170.0000 86° East 479 551 45,000  Level FlightAware Transoceanic
06:41PM 49.0000 -170.0000 86° East 475 547 45,000  Level Oakland Oceanic (ODAPS)
06:42PM 49.0081 -169.8082 86° East 479 551 45,000  Level FlightAware Transoceanic
06:43PM 49.0160 -169.6164 87° East 479 551 45,000  Level FlightAware Transoceanic
06:44PM 49.0235 -169.4245 87° East 479 551 45,000  Level FlightAware Transoceanic
06:45PM 49.0307 -169.2325 87° East 479 551 45,000  Level FlightAware Transoceanic
06:46PM 49.0376 -169.0405 87° East 479 551 45,000  Level FlightAware Transoceanic
06:46PM 49.0333 -168.9667 87° East 470 541 45,000  Level Oakland Oceanic (ODAPS)
06:47PM 49.0456 -168.8023 87° East 475 547 45,000  Level FlightAware Transoceanic
06:48PM 49.0520 -168.6025 87° East 475 547 45,000  Level FlightAware Transoceanic
06:49PM 49.0581 -168.4026 87° East 475 547 45,000  Level FlightAware Transoceanic
06:50PM 49.0638 -168.2027 88° East 475 547 45,000  Level FlightAware Transoceanic
06:51PM 49.0692 -168.0028 88° East 475 547 45,000  Level FlightAware Transoceanic
06:52PM 49.0690 -167.7722 88° East 470 541 45,000  Level FlightAware Transoceanic
06:53PM 49.0738 -167.5730 88° East 470 541 45,000  Level FlightAware Transoceanic
06:54PM 49.0782 -167.3737 88° East 470 541 45,000  Level FlightAware Transoceanic
06:55PM 49.0823 -167.1744 88° East 470 541 45,000  Level FlightAware Transoceanic
06:56PM 49.0860 -166.9750 88° East 470 541 45,000  Level FlightAware Transoceanic
06:57PM 49.0894 -166.7757 89° East 470 541 45,000  Level FlightAware Transoceanic
06:58PM 49.0924 -166.5763 89° East 470 541 45,000  Level FlightAware Transoceanic
06:59PM 49.0951 -166.3769 89° East 470 541 45,000  Level FlightAware Transoceanic
07:00PM 49.0975 -166.1774 89° East 470 541 45,000  Level FlightAware Transoceanic
07:01PM 49.0995 -165.9780 89° East 470 541 45,000  Level FlightAware Transoceanic
07:02PM 49.1011 -165.7785 89° East 470 541 45,000  Level FlightAware Transoceanic
07:03PM 49.1025 -165.5791 89° East 470 541 45,000  Level FlightAware Transoceanic
07:04PM 49.1034 -165.3796 90° East 470 541 45,000  Level FlightAware Transoceanic
07:05PM 49.1041 -165.1801 90° East 470 541 45,000  Level FlightAware Transoceanic
07:06PM 49.1044 -164.9806 90° East 470 541 45,000  Level FlightAware Transoceanic
07:07PM 49.1043 -164.7811 90° East 470 541 45,000  Level FlightAware Transoceanic
07:08PM 49.1039 -164.5816 90° East 470 541 45,000  Level FlightAware Transoceanic
07:09PM 49.1032 -164.3821 90° East 470 541 45,000  Level FlightAware Transoceanic
07:10PM 49.1021 -164.1826 91° East 470 541 45,000  Level FlightAware Transoceanic
07:11PM 49.1007 -163.9831 91° East 470 541 45,000  Level FlightAware Transoceanic
07:12PM 49.0989 -163.7837 91° East 470 541 45,000  Level FlightAware Transoceanic
07:13PM 49.0968 -163.5842 91° East 470 541 45,000  Level FlightAware Transoceanic
07:13PM 49.1000 -163.7667 91° East 459 528 45,000  Level Oakland Oceanic (ODAPS)
07:14PM 49.0943 -163.3848 91° East 470 541 45,000  Level FlightAware Transoceanic
07:15PM 49.0915 -163.1854 91° East 470 541 45,000  Level FlightAware Transoceanic
07:16PM 49.0883 -162.9860 91° East 470 541 45,000  Level FlightAware Transoceanic
07:17PM 49.0849 -162.7867 92° East 470 541 45,000  Level FlightAware Transoceanic
07:18PM 49.0810 -162.5873 92° East 470 541 45,000  Level FlightAware Transoceanic
07:19PM 49.0817 -162.5757 92° East 459 528 45,000  Level FlightAware Transoceanic
07:20PM 49.0774 -162.3773 92° East 459 528 45,000  Level FlightAware Transoceanic
07:21PM 49.0728 -162.1789 92° East 459 528 45,000  Level FlightAware Transoceanic
07:22PM 49.0679 -161.9806 92° East 459 528 45,000  Level FlightAware Transoceanic
07:23PM 49.0626 -161.7823 92° East 459 528 45,000  Level FlightAware Transoceanic
07:24PM 49.0570 -161.5841 93° East 459 528 45,000  Level FlightAware Transoceanic
07:25PM 49.0511 -161.3859 93° East 459 528 45,000  Level FlightAware Transoceanic
07:26PM 49.0448 -161.1877 93° East 459 528 45,000  Level FlightAware Transoceanic
07:27PM 49.0382 -160.9896 93° East 459 528 45,000  Level FlightAware Transoceanic
07:28PM 49.0312 -160.7916 93° East 459 528 45,000  Level FlightAware Transoceanic
07:29PM 49.0239 -160.5936 93° East 459 528 45,000  Level FlightAware Transoceanic
07:30PM 49.0163 -160.3957 93° East 459 528 45,000  Level FlightAware Transoceanic
07:31PM 49.0083 -160.1978 94° East 459 528 45,000  Level FlightAware Transoceanic
07:32PM 49.0000 -160.0000 103° East 459 528 45,000  Level FlightAware Transoceanic
07:33PM 48.9730 -159.8213 103° East 459 528 45,000  Level FlightAware Transoceanic
07:33PM 49.0000 -160.0000 103° East 449 517 45,000  Level Oakland Oceanic (ODAPS)
07:34PM 48.9458 -159.6429 103° East 459 528 45,000  Level FlightAware Transoceanic
07:35PM 48.9183 -159.4646 103° East 459 528 45,000  Level FlightAware Transoceanic
07:36PM 48.8905 -159.2865 103° East 459 528 45,000  Level FlightAware Transoceanic
07:37PM 48.8625 -159.1086 104° East 459 528 45,000  Level FlightAware Transoceanic
07:38PM 48.8341 -158.9309 104° East 459 528 45,000  Level FlightAware Transoceanic
07:39PM 48.8280 -158.8929 104° East 449 517 45,000  Level FlightAware Transoceanic
07:40PM 48.7984 -158.7091 104° East 449 517 45,000  Level FlightAware Transoceanic
07:40PM 48.8000 -158.7167 104° East 443 510 45,000  Level Oakland Oceanic (ODAPS)
07:41PM 48.7684 -158.5256 104° East 449 517 45,000  Level FlightAware Transoceanic
07:42PM 48.7381 -158.3422 104° East 449 517 45,000  Level FlightAware Transoceanic
07:43PM 48.7075 -158.1591 104° East 449 517 45,000  Level FlightAware Transoceanic
07:44PM 48.6767 -157.9763 104° East 449 517 45,000  Level FlightAware Transoceanic
07:45PM 48.6455 -157.7936 105° East 449 517 45,000  Level FlightAware Transoceanic
07:46PM 48.6156 -157.6177 105° East 443 510 45,000  Level FlightAware Transoceanic
07:47PM 48.5839 -157.4353 105° East 443 510 45,000  Level FlightAware Transoceanic
07:48PM 48.5519 -157.2532 105° East 443 510 45,000  Level FlightAware Transoceanic
07:49PM 48.5196 -157.0713 105° East 443 510 45,000  Level FlightAware Transoceanic
07:50PM 48.4869 -156.8896 105° East 443 510 45,000  Level FlightAware Transoceanic
07:51PM 48.4541 -156.7082 105° East 443 510 45,000  Level FlightAware Transoceanic
07:52PM 48.4209 -156.5270 105° East 443 510 45,000  Level FlightAware Transoceanic
07:53PM 48.3874 -156.3460 106° East 443 510 45,000  Level FlightAware Transoceanic
07:54PM 48.3537 -156.1653 106° East 443 510 45,000  Level FlightAware Transoceanic
07:55PM 48.3197 -155.9848 106° East 443 510 45,000  Level FlightAware Transoceanic
07:56PM 48.2854 -155.8046 106° East 443 510 45,000  Level FlightAware Transoceanic
07:57PM 48.2508 -155.6246 106° East 443 510 45,000  Level FlightAware Transoceanic
07:58PM 48.2159 -155.4448 106° East 443 510 45,000  Level FlightAware Transoceanic
07:59PM 48.1808 -155.2653 106° East 443 510 45,000  Level FlightAware Transoceanic
08:00PM 48.1454 -155.0860 107° East 443 510 45,000  Level FlightAware Transoceanic
08:01PM 48.1096 -154.9070 107° East 443 510 45,000  Level FlightAware Transoceanic
08:02PM 48.0737 -154.7282 107° East 443 510 45,000  Level FlightAware Transoceanic
08:03PM 48.0374 -154.5497 107° East 443 510 45,000  Level FlightAware Transoceanic
08:04PM 48.0009 -154.3714 107° East 443 510 45,000  Level FlightAware Transoceanic
08:05PM 47.9641 -154.1934 107° East 443 510 45,000  Level FlightAware Transoceanic
08:06PM 47.9270 -154.0157 107° East 443 510 45,000  Level FlightAware Transoceanic
08:06PM 47.9167 -154.0000 107° East 442 509 45,000  Level Oakland Oceanic (ODAPS)
08:07PM 47.8896 -153.8382 107° East 443 510 45,000  Level FlightAware Transoceanic
08:08PM 47.8520 -153.6609 108° East 443 510 45,000  Level FlightAware Transoceanic
08:09PM 47.8141 -153.4839 108° East 443 510 45,000  Level FlightAware Transoceanic
08:10PM 47.7759 -153.3072 108° East 443 510 45,000  Level FlightAware Transoceanic
08:11PM 47.7375 -153.1308 108° East 443 510 45,000  Level FlightAware Transoceanic
08:12PM 47.7006 -152.9870 108° East 442 509 45,000  Level FlightAware Transoceanic
08:13PM 47.6637 -152.8190 108° East 442 509 45,000  Level FlightAware Transoceanic
08:14PM 47.6266 -152.6512 108° East 442 509 45,000  Level FlightAware Transoceanic
08:15PM 47.5893 -152.4837 108° East 442 509 45,000  Level FlightAware Transoceanic
08:16PM 47.5517 -152.3164 108° East 442 509 45,000  Level FlightAware Transoceanic
08:17PM 47.5138 -152.1494 109° East 442 509 45,000  Level FlightAware Transoceanic
08:18PM 47.4757 -151.9826 109° East 442 509 45,000  Level FlightAware Transoceanic
08:19PM 47.4374 -151.8160 109° East 442 509 45,000  Level FlightAware Transoceanic
08:20PM 47.3988 -151.6497 109° East 442 509 45,000  Level FlightAware Transoceanic
08:21PM 47.3600 -151.4836 109° East 442 509 45,000  Level FlightAware Transoceanic
08:22PM 47.3210 -151.3178 109° East 442 509 45,000  Level FlightAware Transoceanic
08:23PM 47.2817 -151.1522 109° East 442 509 45,000  Level FlightAware Transoceanic
08:24PM 47.2421 -150.9868 109° East 442 509 45,000  Level FlightAware Transoceanic
08:25PM 47.2024 -150.8217 110° East 442 509 45,000  Level FlightAware Transoceanic
08:26PM 47.1624 -150.6569 110° East 442 509 45,000  Level FlightAware Transoceanic
08:27PM 47.1221 -150.4923 110° East 442 509 45,000  Level FlightAware Transoceanic
08:28PM 47.0816 -150.3279 110° East 442 509 45,000  Level FlightAware Transoceanic
08:29PM 47.0409 -150.1638 110° East 442 509 45,000  Level FlightAware Transoceanic
08:30PM 47.0000 -150.0000 110° East 442 509 45,000  Level FlightAware Transoceanic
08:30PM 47.0000 -150.0000 110° East 439 505 45,000  Level Oakland Oceanic (ODAPS)
08:31PM 46.9594 -149.8331 110° East 442 509 45,000  Level FlightAware Transoceanic
08:32PM 46.9186 -149.6664 110° East 442 509 45,000  Level FlightAware Transoceanic
08:33PM 46.8776 -149.5000 110° East 442 509 45,000  Level FlightAware Transoceanic
08:33PM 46.8833 -149.5167 110° East 441 507 45,000  Level Oakland Oceanic (ODAPS)
08:34PM 46.8363 -149.3338 110° East 442 509 45,000  Level FlightAware Transoceanic
08:35PM 46.7947 -149.1679 110° East 442 509 45,000  Level FlightAware Transoceanic
08:36PM 46.7530 -149.0022 110° East 442 509 45,000  Level FlightAware Transoceanic
08:37PM 46.7110 -148.8368 110° East 439 505 45,000  Level FlightAware Transoceanic
08:38PM 46.6687 -148.6716 111° Southeast 439 505 45,000  Level FlightAware Transoceanic
08:39PM 46.6272 -148.5049 111° Southeast 441 507 45,000  Level FlightAware Transoceanic
08:40PM 46.5836 -148.3371 111° Southeast 441 507 45,000  Level FlightAware Transoceanic
08:41PM 46.5398 -148.1697 111° Southeast 441 507 45,000  Level FlightAware Transoceanic
08:42PM 46.4958 -148.0026 111° Southeast 441 507 45,000  Level FlightAware Transoceanic
08:43PM 46.4515 -147.8357 111° Southeast 441 507 45,000  Level FlightAware Transoceanic
08:44PM 46.4070 -147.6691 111° Southeast 441 507 45,000  Level FlightAware Transoceanic
08:45PM 46.3622 -147.5027 111° Southeast 441 507 45,000  Level FlightAware Transoceanic
08:46PM 46.3172 -147.3367 111° Southeast 441 507 45,000  Level FlightAware Transoceanic
08:47PM 46.2720 -147.1709 112° Southeast 441 507 45,000  Level FlightAware Transoceanic
08:48PM 46.2265 -147.0054 112° Southeast 441 507 45,000  Level FlightAware Transoceanic
08:49PM 46.1808 -146.8401 112° Southeast 441 507 45,000  Level FlightAware Transoceanic
08:50PM 46.1348 -146.6751 112° Southeast 441 507 45,000  Level FlightAware Transoceanic
08:51PM 46.0886 -146.5104 112° Southeast 441 507 45,000  Level FlightAware Transoceanic
08:52PM 46.0421 -146.3460 112° Southeast 441 507 45,000  Level FlightAware Transoceanic
08:53PM 45.9955 -146.1819 112° Southeast 441 507 45,000  Level FlightAware Transoceanic
08:54PM 45.9486 -146.0180 112° Southeast 441 507 45,000  Level FlightAware Transoceanic
08:55PM 45.9014 -145.8544 113° Southeast 441 507 45,000  Level FlightAware Transoceanic
08:56PM 45.8540 -145.6911 113° Southeast 441 507 45,000  Level FlightAware Transoceanic
08:57PM 45.8064 -145.5281 113° Southeast 441 507 45,000  Level FlightAware Transoceanic
08:58PM 45.7586 -145.3654 113° Southeast 441 507 45,000  Level FlightAware Transoceanic
08:59PM 45.7105 -145.2029 113° Southeast 441 507 45,000  Level FlightAware Transoceanic
09:00PM 45.6833 -145.1167 113° Southeast 443 510 45,000  Level Oakland Oceanic (ODAPS)
09:00PM 45.6622 -145.0407 113° Southeast 441 507 45,000  Level FlightAware Transoceanic
09:01PM 45.6137 -144.8788 113° Southeast 441 507 45,000  Level FlightAware Transoceanic
09:02PM 45.5650 -144.7171 113° Southeast 441 507 45,000  Level FlightAware Transoceanic
09:03PM 45.5160 -144.5558 113° Southeast 441 507 45,000  Level FlightAware Transoceanic
09:04PM 45.4668 -144.3947 114° Southeast 441 507 45,000  Level FlightAware Transoceanic
09:05PM 45.4173 -144.2339 114° Southeast 441 507 45,000  Level FlightAware Transoceanic
09:06PM 45.3853 -144.1346 114° Southeast 443 510 45,000  Level FlightAware Transoceanic
09:07PM 45.3348 -143.9719 114° Southeast 443 510 45,000  Level FlightAware Transoceanic
09:08PM 45.2841 -143.8095 114° Southeast 443 510 45,000  Level FlightAware Transoceanic
09:09PM 45.2332 -143.6474 114° Southeast 443 510 45,000  Level FlightAware Transoceanic
09:10PM 45.1820 -143.4856 114° Southeast 443 510 45,000  Level FlightAware Transoceanic
09:11PM 45.1306 -143.3241 114° Southeast 443 510 45,000  Level FlightAware Transoceanic
09:12PM 45.0790 -143.1629 114° Southeast 443 510 45,000  Level FlightAware Transoceanic
09:13PM 45.0271 -143.0020 115° Southeast 443 510 45,000  Level FlightAware Transoceanic
09:14PM 44.9751 -142.8413 115° Southeast 443 510 45,000  Level FlightAware Transoceanic
09:15PM 44.9228 -142.6810 115° Southeast 443 510 45,000  Level FlightAware Transoceanic
09:16PM 44.8702 -142.5209 115° Southeast 443 510 45,000  Level FlightAware Transoceanic
09:17PM 44.8175 -142.3612 115° Southeast 443 510 45,000  Level FlightAware Transoceanic
09:18PM 44.7645 -142.2017 115° Southeast 443 510 45,000  Level FlightAware Transoceanic
09:19PM 44.7113 -142.0425 115° Southeast 443 510 45,000  Level FlightAware Transoceanic
09:20PM 44.6579 -141.8837 115° Southeast 443 510 45,000  Level FlightAware Transoceanic
09:21PM 44.6043 -141.7251 115° Southeast 443 510 45,000  Level FlightAware Transoceanic
09:22PM 44.5504 -141.5668 116° Southeast 443 510 45,000  Level FlightAware Transoceanic
09:23PM 44.4963 -141.4088 116° Southeast 443 510 45,000  Level FlightAware Transoceanic
09:24PM 44.4421 -141.2511 116° Southeast 443 510 45,000  Level FlightAware Transoceanic
09:25PM 44.3875 -141.0937 116° Southeast 443 510 45,000  Level FlightAware Transoceanic
09:26PM 44.3328 -140.9366 116° Southeast 443 510 45,000  Level FlightAware Transoceanic
09:26PM 44.3000 -140.8333 116° Southeast 462 532 45,000  Level Oakland Oceanic (ODAPS)
09:27PM 44.2779 -140.7797 116° Southeast 443 510 45,000  Level FlightAware Transoceanic
09:28PM 44.2227 -140.6232 116° Southeast 443 510 45,000  Level FlightAware Transoceanic
09:29PM 44.1674 -140.4669 116° Southeast 443 510 45,000  Level FlightAware Transoceanic
09:30PM 44.1118 -140.3110 116° Southeast 443 510 45,000  Level FlightAware Transoceanic
09:31PM 44.0560 -140.1554 117° Southeast 443 510 45,000  Level FlightAware Transoceanic
09:31PM 44.0000 -140.0000 109° East 465 535 45,000  Level Oakland Oceanic (ODAPS)
09:32PM 44.0000 -140.0000 109° East 462 532 45,000  Level FlightAware Transoceanic
09:33PM 43.9600 -139.8365 109° East 462 532 45,000  Level FlightAware Transoceanic
09:34PM 43.9198 -139.6732 109° East 462 532 45,000  Level FlightAware Transoceanic
09:35PM 43.8794 -139.5101 109° East 462 532 45,000  Level FlightAware Transoceanic
09:36PM 43.8387 -139.3473 109° East 462 532 45,000  Level FlightAware Transoceanic
09:37PM 43.7978 -139.1846 109° East 462 532 45,000  Level FlightAware Transoceanic
09:38PM 43.7445 -138.9743 109° East 465 535 45,000  Level FlightAware Transoceanic
09:39PM 43.7011 -138.8042 110° East 465 535 45,000  Level FlightAware Transoceanic
09:40PM 43.6573 -138.6344 110° East 465 535 45,000  Level FlightAware Transoceanic
09:41PM 43.6134 -138.4648 110° East 465 535 45,000  Level FlightAware Transoceanic
09:42PM 43.5692 -138.2955 110° East 465 535 45,000  Level FlightAware Transoceanic
09:43PM 43.5247 -138.1264 110° East 465 535 45,000  Level FlightAware Transoceanic
09:44PM 43.4800 -137.9576 110° East 465 535 45,000  Level FlightAware Transoceanic
09:45PM 43.4350 -137.7890 110° East 465 535 45,000  Level FlightAware Transoceanic
09:46PM 43.3898 -137.6206 110° East 465 535 45,000  Level FlightAware Transoceanic
09:47PM 43.3443 -137.4525 110° East 465 535 45,000  Level FlightAware Transoceanic
09:48PM 43.2986 -137.2847 111° Southeast 465 535 45,000  Level FlightAware Transoceanic
09:49PM 43.2527 -137.1171 111° Southeast 465 535 45,000  Level FlightAware Transoceanic
09:50PM 43.2065 -136.9498 111° Southeast 465 535 45,000  Level FlightAware Transoceanic
09:51PM 43.1600 -136.7827 111° Southeast 465 535 45,000  Level FlightAware Transoceanic
09:52PM 43.1134 -136.6159 111° Southeast 465 535 45,000  Level FlightAware Transoceanic
09:53PM 43.0664 -136.4493 111° Southeast 465 535 45,000  Level FlightAware Transoceanic
09:53PM 43.0833 -136.4833 111° Southeast 460 529 45,000  Level Oakland Oceanic (ODAPS)
09:54PM 43.0193 -136.2830 111° Southeast 465 535 45,000  Level FlightAware Transoceanic
09:55PM 42.9719 -136.1169 111° Southeast 465 535 45,000  Level FlightAware Transoceanic
09:56PM 42.9242 -135.9511 111° Southeast 465 535 45,000  Level FlightAware Transoceanic
09:57PM 42.8764 -135.7856 112° Southeast 465 535 45,000  Level FlightAware Transoceanic
09:58PM 42.8282 -135.6203 112° Southeast 465 535 45,000  Level FlightAware Transoceanic
09:59PM 42.8016 -135.5081 112° Southeast 460 529 45,000  Level FlightAware Transoceanic
10:00PM 42.7539 -135.3464 112° Southeast 460 529 45,000  Level FlightAware Transoceanic
10:01PM 42.7059 -135.1850 112° Southeast 460 529 45,000  Level FlightAware Transoceanic
10:02PM 42.6577 -135.0238 112° Southeast 460 529 45,000  Level FlightAware Transoceanic
10:03PM 42.6093 -134.8629 112° Southeast 460 529 45,000  Level FlightAware Transoceanic
10:04PM 42.5606 -134.7023 112° Southeast 460 529 45,000  Level FlightAware Transoceanic
10:05PM 42.5117 -134.5418 113° Southeast 460 529 45,000  Level FlightAware Transoceanic
10:06PM 42.4626 -134.3817 113° Southeast 460 529 45,000  Level FlightAware Transoceanic
10:07PM 42.4133 -134.2218 113° Southeast 460 529 45,000  Level FlightAware Transoceanic
10:08PM 42.3637 -134.0621 113° Southeast 460 529 45,000  Level FlightAware Transoceanic
10:09PM 42.3140 -133.9027 113° Southeast 460 529 45,000  Level FlightAware Transoceanic
10:10PM 42.2640 -133.7435 113° Southeast 460 529 45,000  Level FlightAware Transoceanic
10:11PM 42.2138 -133.5846 113° Southeast 460 529 45,000  Level FlightAware Transoceanic
10:12PM 42.1633 -133.4260 113° Southeast 460 529 45,000  Level FlightAware Transoceanic
10:13PM 42.1127 -133.2676 113° Southeast 460 529 45,000  Level FlightAware Transoceanic
10:14PM 42.0618 -133.1094 113° Southeast 460 529 45,000  Level FlightAware Transoceanic
10:15PM 42.0107 -132.9515 114° Southeast 460 529 45,000  Level FlightAware Transoceanic
10:16PM 41.9594 -132.7939 114° Southeast 460 529 45,000  Level FlightAware Transoceanic
10:17PM 41.9079 -132.6365 114° Southeast 460 529 45,000  Level FlightAware Transoceanic
10:18PM 41.8562 -132.4794 114° Southeast 460 529 45,000  Level FlightAware Transoceanic
10:19PM 41.8043 -132.3225 114° Southeast 460 529 45,000  Level FlightAware Transoceanic
10:20PM 41.7521 -132.1659 114° Southeast 460 529 45,000  Level FlightAware Transoceanic
10:20PM 41.7667 -132.2000 114° Southeast 467 537 45,000  Level Oakland Oceanic (ODAPS)
10:21PM 41.6997 -132.0095 114° Southeast 460 529 45,000  Level FlightAware Transoceanic
10:22PM 41.6472 -131.8534 114° Southeast 460 529 45,000  Level FlightAware Transoceanic
10:23PM 41.5944 -131.6976 114° Southeast 460 529 45,000  Level FlightAware Transoceanic
10:24PM 41.5414 -131.5419 115° Southeast 460 529 45,000  Level FlightAware Transoceanic
10:25PM 41.4882 -131.3866 115° Southeast 460 529 45,000  Level FlightAware Transoceanic
10:26PM 41.4432 -131.2508 115° Southeast 467 537 45,000  Level FlightAware Transoceanic
10:27PM 41.3886 -131.0935 115° Southeast 467 537 45,000  Level FlightAware Transoceanic
10:28PM 41.3337 -130.9365 115° Southeast 467 537 45,000  Level FlightAware Transoceanic
10:29PM 41.2786 -130.7798 115° Southeast 467 537 45,000  Level FlightAware Transoceanic
10:30PM 41.2233 -130.6233 115° Southeast 467 537 45,000  Level FlightAware Transoceanic
10:31PM 41.1678 -130.4671 115° Southeast 467 537 45,000  Level FlightAware Transoceanic
10:32PM 41.1121 -130.3111 115° Southeast 467 537 45,000  Level FlightAware Transoceanic
10:33PM 41.0561 -130.1554 116° Southeast 467 537 45,000  Level FlightAware Transoceanic
10:34PM 41.0000 -130.0000 106° East 467 537 45,000  Level FlightAware Transoceanic
10:34PM 41.0000 -130.0000 106° East 459 528 45,000  Level Oakland Oceanic (ODAPS)
10:35PM 40.9651 -129.8405 106° East 467 537 45,000  Level FlightAware Transoceanic
10:36PM 40.9300 -129.6813 106° East 467 537 45,000  Level FlightAware Transoceanic
10:37PM 40.8947 -129.5222 106° East 467 537 45,000  Level FlightAware Transoceanic
10:38PM 40.8591 -129.3632 107° East 467 537 45,000  Level FlightAware Transoceanic
10:39PM 40.8233 -129.2045 107° East 467 537 45,000  Level FlightAware Transoceanic
10:40PM 40.7874 -129.0459 107° East 459 528 45,000  Level FlightAware Transoceanic
10:41PM 40.7512 -128.8874 107° East 459 528 45,000  Level FlightAware Transoceanic
10:42PM 40.7147 -128.7292 107° East 459 528 45,000  Level FlightAware Transoceanic
10:43PM 40.6781 -128.5711 107° East 459 528 45,000  Level FlightAware Transoceanic
10:44PM 40.6413 -128.4132 107° East 459 528 45,000  Level FlightAware Transoceanic
10:45PM 40.6042 -128.2555 107° East 459 528 45,000  Level FlightAware Transoceanic
10:46PM 40.5669 -128.0979 107° East 459 528 45,000  Level FlightAware Transoceanic
10:46PM 40.5500 -128.0167 108° East 457 526 45,000  Level Oakland Oceanic (ODAPS)
10:47PM 40.5294 -127.9405 107° East 459 528 45,000  Level FlightAware Transoceanic
10:48PM 40.4917 -127.7833 108° East 459 528 45,000  Level FlightAware Transoceanic
10:49PM 40.4538 -127.6263 108° East 459 528 45,000  Level FlightAware Transoceanic
10:49PM 40.4211 -127.4903 113° Southeast 459 528 45,000  Level Oakland Center
10:50PM 40.4157 -127.4695 108° East 459 528 45,000  Level FlightAware Transoceanic
10:50PM 40.3833 -127.3311 107° East 460 529 45,000  Level Oakland Center
10:51PM 40.3773 -127.3128 108° East 459 528 45,000  Level FlightAware Transoceanic
10:52PM 40.3363 -127.1448 108° East 457 526 45,000  Level FlightAware Transoceanic
10:52PM 40.3436 -127.1728 108° East 460 529 45,000  Level Oakland Center
10:53PM 40.3000 -127.0000 112° Southeast 457 526 45,000  Level FlightAware Transoceanic
10:53PM 40.2981 -126.9819 107° East 459 528 45,000  Level Oakland Center
10:54PM 40.2523 -126.8481 112° Southeast 457 526 45,000  Level FlightAware Transoceanic
10:54PM 40.2500 -126.8306 113° Southeast 453 521 45,000  Level Oakland Center
10:55PM 40.2044 -126.6964 113° Southeast 457 526 45,000  Level FlightAware Transoceanic
10:55PM 40.1919 -126.6867 118° Southeast 450 518 45,000  Level Oakland Center
10:56PM 40.1072 -126.5647 132° Southeast 454 522 45,000  Level Oakland Center
10:57PM 40.0242 -126.4411 131° Southeast 455 524 45,000  Level Oakland Center
10:58PM 39.9406 -126.3181 132° Southeast 454 522 45,000  Level Oakland Center
10:59PM 39.8578 -126.1950 131° Southeast 454 522 45,000  Level Oakland Center
11:00PM 39.7750 -126.0714 131° Southeast 455 524 45,000  Level Oakland Center
11:01PM 39.6919 -125.9489 131° Southeast 455 524 45,000  Level Oakland Center
11:02PM 39.5925 -125.8031 131° Southeast 453 521 45,000  Level Oakland Center
11:03PM 39.5089 -125.6806 131° Southeast 454 522 45,000  Level Oakland Center
11:04PM 39.4258 -125.5603 132° Southeast 454 522 45,000  Level Oakland Center
11:05PM 39.3428 -125.4403 132° Southeast 448 516 45,000  Level Oakland Center
11:06PM 39.2611 -125.3192 131° Southeast 449 517 45,000  Level Oakland Center
11:07PM 39.1781 -125.2014 132° Southeast 448 516 45,000  Level Oakland Center
11:08PM 39.0961 -125.0847 132° Southeast 448 516 45,000  Level Oakland Center
11:09PM 39.0142 -124.9661 132° Southeast 447 514 45,000  Level Oakland Center
11:10PM 38.9156 -124.8258 132° Southeast 446 513 45,000  Level Oakland Center
11:11PM 38.8333 -124.7089 132° Southeast 445 512 45,000  Level Oakland Center
11:12PM 38.7506 -124.5964 133° Southeast 438 504 45,000  Level Oakland Center
11:13PM 38.6692 -124.4811 132° Southeast 438 504 45,000  Level Oakland Center
11:14PM 38.5833 -124.3603 132° Southeast 446 513 45,000  Level Oakland Center
11:15PM 38.5008 -124.2442 132° Southeast 444 511 45,000  Level Oakland Center
11:16PM 38.4228 -124.1314 131° Southeast 429 494 45,000  Level Oakland Center
11:17PM 38.3375 -124.0192 134° Southeast 437 503 45,000  Level Oakland Center
11:18PM 38.2558 -123.9061 133° Southeast 435 501 45,000  Level Oakland Center
11:19PM 38.1739 -123.7939 133° Southeast 434 499 45,000  Level Oakland Center
11:20PM 38.0736 -123.6558 133° Southeast 445 512 45,000  Level Oakland Center
11:21PM 37.9919 -123.5433 133° Southeast 436 502 45,000  Level Oakland Center
11:22PM 37.9089 -123.4314 133° Southeast 435 501 45,000  Level Oakland Center
11:23PM 37.8256 -123.3197 133° Southeast 439 505 45,000  Level Oakland Center
11:24PM 37.7431 -123.2103 134° Southeast 433 498 45,000  Level Oakland Center
11:25PM 37.6614 -123.1008 133° Southeast 432 497 45,000  Level Oakland Center
11:26PM 37.5781 -122.9897 133° Southeast 435 501 45,000  Level Oakland Center
11:27PM 37.4944 -122.8758 133° Southeast 442 509 45,000  Level Oakland Center
11:28PM 37.3958 -122.7431 133° Southeast 438 504 45,000  Level Oakland Center
11:29PM 37.3139 -122.6344 133° Southeast 433 498 45,000  Level Oakland Center
11:30PM 37.2311 -122.5239 133° Southeast 438 504 45,000  Level Oakland Center
11:31PM 37.1483 -122.4156 134° Southeast 433 498 45,000  Level Oakland Center
11:32PM 37.0656 -122.3061 133° Southeast 434 499 45,000  Level Oakland Center
11:33PM 36.9825 -122.1964 133° Southeast 439 505 45,000  Level Oakland Center
11:34PM 36.9000 -122.0892 134° Southeast 434 499 45,000  Level Oakland Center
11:35PM 36.8164 -121.9808 134° Southeast 434 499 45,000  Level Oakland Center
11:36PM 36.7153 -121.8544 135° Southeast 431 496 45,000  Level Oakland Center
11:37PM 36.6408 -121.7600 134° Southeast 436 502 45,000  Level Oakland Center
11:38PM 36.5578 -121.6517 134° Southeast 432 497 45,000  Level Oakland Center
11:40PM 36.4744 -121.5436 134° Southeast 435 501 45,000  Level Oakland Center
11:41PM 36.3900 -121.4350 134° Southeast 438 504 45,000  Level Oakland Center
11:42PM 36.2894 -121.3056 134° Southeast 435 501 45,000  Level Oakland Center
11:43PM 36.2078 -121.1992 134° Southeast 426 490 45,000  Level Oakland Center
11:44PM 36.1239 -121.0961 135° Southeast 427 491 45,000  Level Oakland Center
11:45PM 36.0419 -120.9908 134° Southeast 426 490 45,000  Level Oakland Center
11:46PM 35.9594 -120.8847 134° Southeast 426 490 45,000  Level Oakland Center
11:47PM 35.8756 -120.7817 135° Southeast 426 490 45,000  Level Oakland Center
11:48PM 35.7931 -120.6764 134° Southeast 427 491 45,000  Level Oakland Center
11:49PM 35.7106 -120.5733 135° Southeast 425 489 45,000  Level Oakland Center
11:50PM 35.6286 -120.4711 135° Southeast 418 481 45,000  Level Oakland Center
11:51PM 35.5403 -120.3625 135° Southeast 425 489 45,000  Level Los Angeles Center
11:52PM 35.4572 -120.2578 134° Southeast 431 496 45,000  Level Los Angeles Center
11:53PM 35.3742 -120.1572 135° Southeast 423 487 45,000  Level Los Angeles Center
11:54PM 35.2922 -120.0517 134° Southeast 424 488 45,000  Level Los Angeles Center
11:55PM 35.2086 -119.9500 135° Southeast 421 484 45,000  Level Los Angeles Center
11:56PM 35.1253 -119.8500 136° Southeast 420 483 45,000  Level Los Angeles Center
11:57PM 35.0431 -119.7497 135° Southeast 417 480 45,000  Level Los Angeles Center
11:58PM 34.9442 -119.6311 135° Southeast 416 479 45,000  Level Los Angeles Center
11:59PM 34.8617 -119.5300 135° Southeast 420 483 45,000 -840 Level Los Angeles Center
12:00AM 34.7772 -119.4272 135° Southeast 427 491 43,300 -1,980 Descending Los Angeles Center
12:01AM 34.6906 -119.3253 136° Southeast 433 498 41,000 -2,220 Descending Los Angeles Center
12:02AM 34.6050 -119.2247 136° Southeast 442 509 38,800 -2,280 Descending Los Angeles Center
12:03AM 34.5144 -119.1172 136° Southeast 454 522 36,300 -2,400 Descending Los Angeles Center
12:04AM 34.4211 -119.0069 136° Southeast 464 534 33,900 -2,700 Descending Los Angeles Center
12:05AM 34.3069 -118.8733 136° Southeast 475 547 30,800 -2,760 Descending Los Angeles Center
12:06AM 34.2108 -118.7581 135° Southeast 485 558 28,200 -2,520 Descending Los Angeles Center
12:07AM 34.1147 -118.6469 136° Southeast 480 552 25,700 -2,400 Descending Los Angeles Center
12:08AM 34.0153 -118.5289 135° Southeast 460 529 23,300 -2,220 Descending Los Angeles Center
12:09AM 33.9208 -118.4647 151° Southeast 448 516 21,200 -1,620 Descending Los Angeles Center
12:10AM 33.8050 -118.4772 185° South 424 488 20,000 -1,200 Descending Los Angeles Center
12:11AM 33.6703 -118.5233 196° South 427 491 18,800 -2,340 Descending Los Angeles Center
12:12AM 33.5589 -118.5464 190° South 414 476 15,300 -2,640 Descending Los Angeles Center
12:13AM 33.4600 -118.4919 155° Southeast 402 463 13,500 -1,740 Descending Los Angeles Center
12:14AM 33.3819 -118.4036 137° Southeast 395 455 11,800 -1,320 Descending Los Angeles Center
12:15AM 33.3564 -118.2847 104° East 378 435 10,900 -540 Descending Los Angeles Center
12:16AM 33.3414 -118.1639 98° East 319 367 10,800 -960 Descending Los Angeles Center
12:17AM 33.3286 -118.0636 99° East 309 356 9,000 -1,680 Descending Los Angeles Center
12:18AM 33.3156 -117.9692 99° East 296 341 7,400 -1,500 Descending Los Angeles Center
12:19AM 33.3036 -117.8769 99° East 286 329 6,000 -1,140 Descending Los Angeles Center
12:20AM 33.2914 -117.7869 99° East 279 321 5,100 -480 Descending Los Angeles Center
12:21AM 33.2789 -117.6969 99° East 276 318 5,100  Level Los Angeles Center
12:22AM 33.2675 -117.6050 98° East 278 320 5,100 -60 Level Los Angeles Center
12:23AM 33.2522 -117.4981 100° East 276 318 5,000  Descending Los Angeles Center
12:25AM 33.2414 -117.4189 99° East 258 297 5,100 -60 Climbing Los Angeles Center
12:26AM 33.2303 -117.3500 101° East 230 265 4,900 -900 Descending Los Angeles Center
12:27AM 33.2200 -117.2767 99° East 223 257 3,300 -960 Descending Los Angeles Center
12:28AM 33.1981 -117.2053 110° East 226 260 3,000 -600 Descending Los Angeles Center
12:29AM 33.1569 -117.1661 141° Southeast 212 244 2,200 -780 Descending Los Angeles Center
12:30AM 33.1397 -117.2056 242° Southwest 169 194 1,500 -720 Descending Los Angeles Center
12:31AM 33.1344 -117.2456 261° West 136 157 800 -540 Descending Los Angeles Center
12:32AM 33.1264 -117.2875 257° West 118 136 400 -420 Descending Los Angeles Center